createdAt,value
2022-08-30T00:02:10.742Z,16.50
2022-08-30T00:04:39.171Z,16.50
2022-08-30T00:07:07.352Z,16.50
2022-08-30T00:09:35.470Z,16.50
2022-08-30T00:12:04.453Z,16.50
2022-08-30T00:14:32.628Z,16.50
2022-08-30T00:17:00.809Z,16.50
2022-08-30T00:19:30.378Z,16.50
2022-08-30T00:21:58.602Z,16.40
2022-08-30T00:24:26.769Z,16.40
2022-08-30T00:26:54.892Z,16.50
2022-08-30T00:29:23.041Z,16.40
2022-08-30T00:31:51.223Z,16.40
2022-08-30T00:34:19.378Z,16.40
2022-08-30T00:36:48.928Z,16.40
2022-08-30T00:39:17.064Z,16.40
2022-08-30T00:41:45.505Z,16.40
2022-08-30T00:44:13.832Z,16.40
2022-08-30T00:46:42.044Z,16.40
2022-08-30T00:49:13.725Z,16.30
2022-08-30T00:51:42.910Z,16.30
2022-08-30T00:54:12.928Z,16.30
2022-08-30T00:56:41.273Z,16.20
2022-08-30T00:59:10.365Z,16.20
2022-08-30T01:01:39.058Z,16.10
2022-08-30T01:04:09.839Z,16.10
2022-08-30T01:06:40.154Z,16.10
2022-08-30T01:09:09.488Z,16.10
2022-08-30T01:11:41.744Z,16.10
2022-08-30T01:14:12.652Z,16.10
2022-08-30T01:16:42.961Z,16.10
2022-08-30T01:19:22.625Z,16.00
2022-08-30T01:21:55.737Z,16.00
2022-08-30T01:24:25.465Z,15.90
2022-08-30T01:26:53.619Z,15.80
2022-08-30T01:29:24.623Z,15.80
2022-08-30T01:31:52.872Z,15.80
2022-08-30T01:34:21.084Z,15.80
2022-08-30T01:36:50.575Z,15.70
2022-08-30T01:39:19.859Z,15.70
2022-08-30T01:41:49.471Z,15.70
2022-08-30T01:44:17.629Z,15.70
2022-08-30T01:46:49.068Z,15.70
2022-08-30T01:49:27.303Z,15.60
2022-08-30T01:52:00.874Z,15.70
2022-08-30T01:54:36.911Z,15.60
2022-08-30T01:57:09.974Z,15.60
2022-08-30T01:59:39.246Z,15.70
2022-08-30T02:02:07.916Z,15.70
2022-08-30T02:04:36.803Z,15.70
2022-08-30T02:07:05.878Z,15.60
2022-08-30T02:09:33.985Z,15.60
2022-08-30T02:12:02.291Z,15.60
2022-08-30T02:14:31.790Z,15.70
2022-08-30T02:16:59.987Z,15.70
2022-08-30T02:19:28.143Z,15.70
2022-08-30T02:21:56.858Z,15.70
2022-08-30T02:24:24.995Z,15.70
2022-08-30T02:26:53.803Z,15.60
2022-08-30T02:29:22.784Z,15.60
2022-08-30T02:31:52.798Z,15.60
2022-08-30T02:34:20.929Z,15.50
2022-08-30T02:36:49.083Z,15.50
2022-08-30T02:39:17.686Z,15.50
2022-08-30T02:41:45.926Z,15.50
2022-08-30T02:44:14.012Z,15.50
2022-08-30T02:46:42.142Z,15.50
2022-08-30T02:51:59.813Z,15.50
2022-08-30T02:54:28.404Z,15.40
2022-08-30T02:56:57.372Z,15.40
2022-08-30T02:59:26.867Z,15.40
2022-08-30T03:01:56.090Z,15.40
2022-08-30T03:04:27.018Z,15.40
2022-08-30T03:06:55.593Z,15.30
2022-08-30T03:09:23.730Z,15.30
2022-08-30T03:11:51.846Z,15.30
2022-08-30T03:14:19.989Z,15.20
2022-08-30T03:16:48.079Z,15.30
2022-08-30T03:19:16.229Z,15.30
2022-08-30T03:21:46.094Z,15.20
2022-08-30T03:24:14.654Z,15.20
2022-08-30T03:26:46.237Z,15.20
2022-08-30T03:29:15.136Z,15.20
2022-08-30T03:31:52.998Z,15.30
2022-08-30T03:34:22.637Z,15.30
2022-08-30T03:36:52.928Z,15.20
2022-08-30T03:39:22.545Z,15.20
2022-08-30T03:41:50.781Z,15.20
2022-08-30T03:44:20.123Z,15.20
2022-08-30T03:46:48.788Z,15.10
2022-08-30T03:49:17.116Z,15.20
2022-08-30T03:51:45.252Z,15.10
2022-08-30T03:54:14.703Z,15.10
2022-08-30T03:56:43.044Z,15.10
2022-08-30T03:59:11.319Z,15.10
2022-08-30T04:01:39.441Z,15.20
2022-08-30T04:04:07.529Z,15.20
2022-08-30T04:06:35.784Z,15.20
2022-08-30T04:09:03.925Z,15.20
2022-08-30T04:11:34.015Z,15.20
2022-08-30T04:14:02.047Z,15.30
2022-08-30T04:16:30.189Z,15.30
2022-08-30T04:18:58.228Z,15.30
2022-08-30T04:21:28.274Z,15.30
2022-08-30T04:23:56.302Z,15.20
2022-08-30T04:26:29.217Z,15.20
2022-08-30T04:28:59.315Z,15.30
2022-08-30T04:31:27.868Z,15.30
2022-08-30T04:33:56.396Z,15.30
2022-08-30T04:36:24.903Z,15.30
2022-08-30T04:38:52.966Z,15.30
2022-08-30T04:41:24.448Z,15.30
2022-08-30T04:43:52.731Z,15.40
2022-08-30T04:46:22.323Z,15.40
2022-08-30T04:48:50.972Z,15.40
2022-08-30T04:51:19.652Z,15.50
2022-08-30T04:53:47.961Z,15.60
2022-08-30T04:56:18.341Z,15.60
2022-08-30T04:58:48.127Z,15.60
2022-08-30T05:01:18.969Z,15.60
2022-08-30T05:03:49.707Z,15.70
2022-08-30T05:06:18.184Z,15.70
2022-08-30T05:08:47.060Z,15.70
2022-08-30T05:11:16.474Z,15.70
2022-08-30T05:13:44.924Z,15.70
2022-08-30T05:16:17.586Z,15.70
2022-08-30T05:18:46.748Z,15.80
2022-08-30T05:21:17.908Z,15.80
2022-08-30T05:23:46.344Z,15.90
2022-08-30T05:26:17.902Z,15.90
2022-08-30T05:28:46.438Z,15.90
2022-08-30T05:31:17.629Z,15.90
2022-08-30T05:33:46.851Z,15.90
2022-08-30T05:36:18.587Z,16.00
2022-08-30T05:38:47.394Z,15.90
2022-08-30T05:41:16.302Z,15.90
2022-08-30T05:43:44.893Z,15.90
2022-08-30T05:46:19.280Z,16.00
2022-08-30T05:48:47.990Z,16.00
2022-08-30T05:51:20.212Z,16.00
2022-08-30T05:53:49.349Z,16.10
2022-08-30T05:56:20.623Z,16.10
2022-08-30T05:58:49.691Z,16.10
2022-08-30T06:01:22.815Z,16.10
2022-08-30T06:03:52.370Z,16.20
2022-08-30T06:06:22.059Z,16.20
2022-08-30T06:08:50.803Z,16.30
2022-08-30T06:11:21.225Z,16.30
2022-08-30T06:13:50.841Z,16.40
2022-08-30T06:16:21.101Z,16.40
2022-08-30T06:18:49.801Z,16.40
2022-08-30T06:21:18.784Z,16.50
2022-08-30T06:23:48.345Z,16.60
2022-08-30T06:26:16.593Z,16.70
2022-08-30T06:28:44.660Z,16.70
2022-08-30T06:31:15.120Z,16.70
2022-08-30T06:33:43.469Z,16.70
2022-08-30T06:36:13.772Z,16.60
2022-08-30T06:38:42.347Z,16.70
2022-08-30T06:41:14.478Z,16.70
2022-08-30T06:43:48.720Z,16.80
2022-08-30T06:46:20.592Z,16.80
2022-08-30T06:48:49.386Z,16.80
2022-08-30T06:51:20.666Z,16.90
2022-08-30T06:53:49.966Z,16.90
2022-08-30T06:56:19.826Z,16.90
2022-08-30T06:58:48.328Z,17.00
2022-08-30T07:01:19.693Z,17.10
2022-08-30T07:03:48.375Z,17.10
2022-08-30T07:06:16.660Z,17.10
2022-08-30T07:08:47.973Z,17.20
2022-08-30T07:11:16.541Z,17.20
2022-08-30T07:13:45.999Z,17.30
2022-08-30T07:16:15.390Z,17.30
2022-08-30T07:18:51.470Z,17.30
2022-08-30T07:21:21.264Z,17.40
2022-08-30T07:23:53.250Z,17.40
2022-08-30T07:26:24.099Z,17.40
2022-08-30T07:28:55.988Z,17.40
2022-08-30T07:31:25.462Z,17.50
2022-08-30T07:33:53.922Z,17.50
2022-08-30T07:36:22.868Z,17.50
2022-08-30T07:38:52.437Z,17.60
2022-08-30T07:41:22.552Z,17.60
2022-08-30T07:43:50.677Z,17.60
2022-08-30T07:46:20.803Z,17.70
2022-08-30T07:48:49.052Z,17.70
2022-08-30T07:51:19.564Z,17.70
2022-08-30T07:53:47.954Z,17.70
2022-08-30T07:56:16.163Z,17.80
2022-08-30T07:58:44.423Z,17.80
2022-08-30T08:01:13.964Z,17.90
2022-08-30T08:03:44.469Z,17.90
2022-08-30T08:06:14.742Z,17.90
2022-08-30T08:08:45.345Z,18.00
2022-08-30T08:11:16.408Z,18.00
2022-08-30T08:13:52.728Z,18.10
2022-08-30T08:16:23.177Z,18.20
2022-08-30T08:18:53.252Z,18.30
2022-08-30T08:21:21.889Z,18.40
2022-08-30T08:23:50.086Z,18.40
2022-08-30T08:26:18.252Z,18.50
2022-08-30T08:28:47.166Z,18.60
2022-08-30T08:31:17.330Z,18.60
2022-08-30T08:33:45.540Z,18.70
2022-08-30T08:36:15.076Z,18.80
2022-08-30T08:38:43.433Z,18.90
2022-08-30T08:41:20.143Z,18.90
2022-08-30T08:43:48.424Z,18.90
2022-08-30T08:46:24.284Z,18.90
2022-08-30T08:49:00.527Z,19.00
2022-08-30T08:51:52.366Z,19.10
2022-08-30T08:54:26.199Z,19.20
2022-08-30T08:56:55.045Z,19.30
2022-08-30T08:59:23.542Z,19.40
2022-08-30T09:01:52.000Z,19.40
2022-08-30T09:04:26.186Z,19.50
2022-08-30T09:06:59.600Z,19.50
2022-08-30T09:09:31.048Z,19.50
2022-08-30T09:11:59.218Z,19.40
2022-08-30T09:14:32.341Z,19.40
2022-08-30T09:17:05.173Z,19.50
2022-08-30T09:19:44.125Z,19.60
2022-08-30T09:22:26.341Z,19.70
2022-08-30T09:25:00.966Z,19.90
2022-08-30T09:27:33.553Z,20.10
2022-08-30T09:30:06.199Z,20.10
2022-08-30T09:32:37.850Z,20.10
2022-08-30T09:35:10.196Z,20.30
2022-08-30T09:37:50.089Z,20.50
2022-08-30T09:40:26.330Z,20.90
2022-08-30T09:43:03.636Z,21.10
2022-08-30T09:45:36.069Z,21.20
2022-08-30T09:48:24.551Z,21.10
2022-08-30T09:51:06.088Z,21.00
2022-08-30T09:53:40.703Z,21.00
2022-08-30T09:56:19.798Z,21.10
2022-08-30T09:59:39.770Z,21.30
2022-08-30T10:02:28.257Z,21.60
2022-08-30T10:05:03.700Z,21.70
2022-08-30T10:07:39.142Z,21.50
2022-08-30T10:10:15.183Z,21.30
2022-08-30T10:12:56.832Z,21.10
2022-08-30T10:15:30.928Z,21.10
2022-08-30T10:18:12.613Z,21.30
2022-08-30T10:20:50.229Z,21.50
2022-08-30T10:23:22.964Z,21.50
2022-08-30T10:25:56.552Z,21.40
2022-08-30T10:28:31.277Z,21.40
2022-08-30T10:31:04.529Z,21.40
2022-08-30T10:33:38.995Z,21.50
2022-08-30T10:36:11.848Z,21.50
2022-08-30T10:38:42.584Z,21.70
2022-08-30T10:41:21.123Z,21.90
2022-08-30T10:43:56.147Z,22.10
2022-08-30T10:46:31.649Z,22.30
2022-08-30T10:49:02.313Z,22.50
2022-08-30T10:51:36.847Z,22.60
2022-08-30T10:54:12.277Z,22.60
2022-08-30T10:56:46.747Z,22.70
2022-08-30T10:59:18.139Z,22.80
2022-08-30T11:02:19.156Z,22.90
2022-08-30T11:05:05.849Z,23.00
2022-08-30T11:07:43.197Z,23.10
2022-08-30T11:10:32.260Z,23.20
2022-08-30T11:13:05.523Z,23.20
2022-08-30T11:15:37.744Z,23.20
2022-08-30T11:18:13.191Z,23.30
2022-08-30T11:20:44.394Z,23.30
2022-08-30T11:23:26.844Z,23.40
2022-08-30T11:26:01.782Z,23.40
2022-08-30T11:29:07.947Z,23.40
2022-08-30T11:31:40.675Z,23.50
2022-08-30T11:34:11.089Z,23.50
2022-08-30T11:37:10.053Z,23.60
2022-08-30T11:40:06.708Z,23.60
2022-08-30T11:42:44.796Z,23.70
2022-08-30T11:45:47.073Z,23.70
2022-08-30T11:48:53.626Z,23.70
2022-08-30T11:52:26.457Z,23.90
2022-08-30T11:55:00.045Z,24.00
2022-08-30T11:57:35.229Z,24.10
2022-08-30T12:00:09.049Z,24.10
2022-08-30T12:02:50.282Z,24.20
2022-08-30T12:05:51.744Z,24.10
2022-08-30T12:08:47.396Z,24.20
2022-08-30T12:11:56.923Z,24.20
2022-08-30T12:14:41.502Z,24.20
2022-08-30T12:17:36.283Z,24.30
2022-08-30T12:20:12.694Z,24.40
2022-08-30T12:22:40.800Z,24.50
2022-08-30T12:25:21.398Z,24.50
2022-08-30T12:27:50.168Z,24.30
2022-08-30T12:30:27.669Z,24.20
2022-08-30T12:32:56.057Z,24.10
2022-08-30T12:35:29.156Z,24.00
2022-08-30T12:38:01.584Z,23.90
2022-08-30T12:40:31.746Z,23.90
2022-08-30T12:43:04.318Z,23.90
2022-08-30T12:45:39.299Z,23.90
2022-08-30T12:48:11.028Z,23.90
2022-08-30T12:50:51.652Z,23.80
2022-08-30T12:53:26.469Z,23.80
2022-08-30T12:56:00.371Z,23.80
2022-08-30T12:58:43.431Z,23.70
2022-08-30T13:01:27.493Z,23.60
2022-08-30T13:04:02.439Z,23.60
2022-08-30T13:06:42.507Z,23.50
2022-08-30T13:09:24.891Z,23.80
2022-08-30T13:11:53.138Z,24.00
2022-08-30T13:14:31.431Z,24.10
2022-08-30T13:17:08.658Z,24.00
2022-08-30T13:19:38.933Z,23.80
2022-08-30T13:22:26.212Z,23.70
2022-08-30T13:24:55.397Z,23.60
2022-08-30T13:27:24.067Z,23.50
2022-08-30T13:29:52.430Z,23.40
2022-08-30T13:32:21.055Z,23.30
2022-08-30T13:34:49.169Z,23.20
2022-08-30T13:40:12.407Z,23.10
2022-08-30T13:42:42.843Z,23.10
2022-08-30T13:48:02.839Z,23.00
2022-08-30T13:50:32.413Z,22.90
2022-08-30T13:53:01.868Z,22.90
2022-08-30T13:55:30.441Z,22.90
2022-08-30T13:57:58.678Z,22.90
2022-08-30T14:00:27.529Z,22.80
2022-08-30T14:02:57.544Z,22.80
2022-08-30T14:05:49.284Z,22.80
2022-08-30T14:11:12.651Z,22.80
2022-08-30T14:16:32.380Z,22.80
2022-08-30T14:19:01.877Z,22.80
2022-08-30T14:21:30.342Z,22.90
2022-08-30T14:24:00.561Z,22.90
2022-08-30T14:26:32.807Z,22.90
2022-08-30T14:29:01.931Z,22.90
2022-08-30T14:31:32.785Z,22.90
2022-08-30T14:34:03.365Z,22.80
2022-08-30T14:36:33.114Z,22.90
2022-08-30T14:39:29.034Z,22.90
2022-08-30T14:41:57.625Z,22.90
2022-08-30T14:44:45.710Z,22.90
2022-08-30T14:47:19.557Z,22.90
2022-08-30T14:49:49.098Z,22.80
2022-08-30T14:52:18.432Z,22.80
2022-08-30T14:54:49.190Z,22.80
2022-08-30T14:57:19.393Z,22.70
2022-08-30T14:59:47.688Z,22.70
2022-08-30T15:02:55.364Z,22.70
2022-08-30T15:05:23.622Z,22.70
2022-08-30T15:07:53.040Z,22.70
2022-08-30T15:10:27.892Z,22.70
2022-08-30T15:12:56.201Z,22.70
2022-08-30T15:15:24.670Z,22.70
2022-08-30T15:17:53.036Z,22.60
2022-08-30T15:20:21.539Z,22.70
2022-08-30T15:22:49.897Z,22.70
2022-08-30T15:25:19.132Z,22.80
2022-08-30T15:27:58.417Z,22.80
2022-08-30T15:30:27.107Z,22.80
2022-08-30T15:32:55.538Z,22.80
2022-08-30T15:35:23.861Z,22.80
2022-08-30T15:37:52.124Z,22.80
2022-08-30T15:40:22.690Z,22.70
2022-08-30T15:42:52.474Z,22.70
2022-08-30T15:45:20.895Z,22.60
2022-08-30T15:47:49.172Z,22.50
2022-08-30T15:50:18.469Z,22.40
2022-08-30T15:53:10.898Z,22.40
2022-08-30T15:55:39.400Z,22.40
2022-08-30T15:58:09.200Z,22.30
2022-08-30T16:00:42.823Z,22.30
2022-08-30T16:03:13.114Z,22.20
2022-08-30T16:05:41.373Z,22.20
2022-08-30T16:08:09.970Z,22.10
2022-08-30T16:10:38.108Z,22.10
2022-08-30T16:13:12.812Z,22.00
2022-08-30T16:15:41.137Z,21.90
2022-08-30T16:18:09.333Z,21.80
2022-08-30T16:20:37.675Z,21.80
2022-08-30T16:23:05.837Z,21.80
2022-08-30T16:25:39.970Z,21.80
2022-08-30T16:28:09.748Z,21.70
2022-08-30T16:30:39.267Z,21.70
2022-08-30T16:33:07.589Z,21.70
2022-08-30T16:35:36.344Z,21.70
2022-08-30T16:38:04.580Z,21.60
2022-08-30T16:40:33.281Z,21.60
2022-08-30T16:43:03.965Z,21.60
2022-08-30T16:45:34.914Z,21.50
2022-08-30T16:48:04.752Z,21.50
2022-08-30T16:50:33.453Z,21.40
2022-08-30T16:53:01.659Z,21.40
2022-08-30T16:55:31.093Z,21.30
2022-08-30T16:57:59.712Z,21.30
2022-08-30T17:00:28.235Z,21.20
2022-08-30T17:02:56.577Z,21.10
2022-08-30T17:05:26.707Z,21.00
2022-08-30T17:07:54.829Z,21.00
2022-08-30T17:10:26.253Z,21.00
2022-08-30T17:12:59.680Z,21.00
2022-08-30T17:15:28.244Z,21.00
2022-08-30T17:17:57.124Z,21.00
2022-08-30T17:20:31.109Z,20.90
2022-08-30T17:23:02.140Z,20.90
2022-08-30T17:25:34.037Z,20.90
2022-08-30T17:28:02.697Z,20.80
2022-08-30T17:30:31.618Z,20.80
2022-08-30T17:33:00.125Z,20.80
2022-08-30T17:35:29.989Z,20.80
2022-08-30T17:37:58.610Z,20.80
2022-08-30T17:40:26.770Z,20.80
2022-08-30T17:42:54.972Z,20.80
2022-08-30T17:45:23.225Z,20.80
2022-08-30T17:47:51.950Z,20.70
2022-08-30T17:50:20.461Z,20.70
2022-08-30T17:52:50.250Z,20.60
2022-08-30T17:55:18.720Z,20.60
2022-08-30T17:57:46.839Z,20.60
2022-08-30T18:00:20.153Z,20.50
2022-08-30T18:02:49.609Z,20.50
2022-08-30T18:05:17.857Z,20.50
2022-08-30T18:07:54.292Z,20.40
2022-08-30T18:10:26.754Z,20.40
2022-08-30T18:13:02.786Z,20.30
2022-08-30T18:15:31.123Z,20.30
2022-08-30T18:17:59.383Z,20.20
2022-08-30T18:20:27.566Z,20.20
2022-08-30T18:23:00.936Z,20.10
2022-08-30T18:25:29.285Z,20.00
2022-08-30T18:27:58.878Z,20.00
2022-08-30T18:30:33.940Z,20.00
2022-08-30T18:33:06.811Z,19.90
2022-08-30T18:35:35.184Z,19.90
2022-08-30T18:38:06.269Z,19.90
2022-08-30T18:40:34.609Z,19.80
2022-08-30T18:43:07.740Z,19.80
2022-08-30T18:45:36.217Z,19.80
2022-08-30T18:48:05.477Z,19.70
2022-08-30T18:50:34.080Z,19.60
2022-08-30T18:53:02.429Z,19.60
2022-08-30T18:55:32.327Z,19.60
2022-08-30T18:58:01.809Z,19.60
2022-08-30T19:00:31.127Z,19.50
2022-08-30T19:02:59.371Z,19.50
2022-08-30T19:05:27.881Z,19.50
2022-08-30T19:07:57.811Z,19.50
2022-08-30T19:10:28.380Z,19.40
2022-08-30T19:12:59.776Z,19.40
2022-08-30T19:15:29.002Z,19.40
2022-08-30T19:17:57.849Z,19.30
2022-08-30T19:20:26.740Z,19.30
2022-08-30T19:23:09.662Z,19.30
2022-08-30T19:25:41.164Z,19.30
2022-08-30T19:28:11.338Z,19.20
2022-08-30T19:30:39.859Z,19.20
2022-08-30T19:33:08.099Z,19.20
2022-08-30T19:35:40.081Z,19.20
2022-08-30T19:38:08.271Z,19.10
2022-08-30T19:40:36.745Z,19.10
2022-08-30T19:43:06.815Z,19.10
2022-08-30T19:45:40.742Z,19.00
2022-08-30T19:48:09.061Z,19.00
2022-08-30T19:50:39.174Z,18.90
2022-08-30T19:53:09.093Z,18.90
2022-08-30T19:55:39.698Z,18.80
2022-08-30T19:58:07.995Z,18.80
2022-08-30T20:00:39.251Z,18.80
2022-08-30T20:03:13.606Z,18.70
2022-08-30T20:05:44.069Z,18.70
2022-08-30T20:08:12.455Z,18.70
2022-08-30T20:10:45.177Z,18.70
2022-08-30T20:13:13.625Z,18.70
2022-08-30T20:15:43.214Z,18.70
2022-08-30T20:18:14.532Z,18.60
2022-08-30T20:20:49.496Z,18.60
2022-08-30T20:23:21.466Z,18.60
2022-08-30T20:25:52.179Z,18.50
2022-08-30T20:28:21.385Z,18.50
2022-08-30T20:30:51.294Z,18.60
2022-08-30T20:33:21.155Z,18.50
2022-08-30T20:35:49.931Z,18.50
2022-08-30T20:38:21.952Z,18.50
2022-08-30T20:40:53.364Z,18.40
2022-08-30T20:43:23.333Z,18.40
2022-08-30T20:45:53.151Z,18.40
2022-08-30T20:48:21.289Z,18.40
2022-08-30T20:50:49.948Z,18.30
2022-08-30T20:53:18.234Z,18.30
2022-08-30T20:55:48.545Z,18.30
2022-08-30T20:58:17.224Z,18.20
2022-08-30T21:00:50.412Z,18.20
2022-08-30T21:03:27.391Z,18.20
2022-08-30T21:05:56.832Z,18.10
2022-08-30T21:08:25.447Z,18.10
2022-08-30T21:10:54.667Z,18.10
2022-08-30T21:13:23.737Z,18.10
2022-08-30T21:15:53.311Z,18.10
2022-08-30T21:18:28.544Z,18.10
2022-08-30T21:20:57.487Z,18.10
2022-08-30T21:23:25.987Z,18.10
2022-08-30T21:25:54.468Z,18.00
2022-08-30T21:28:24.219Z,18.00
2022-08-30T21:31:04.134Z,18.00
2022-08-30T21:33:34.106Z,18.00
2022-08-30T21:36:19.863Z,18.00
2022-08-30T21:38:48.233Z,18.00
2022-08-30T21:41:18.394Z,18.00
2022-08-30T21:43:47.558Z,18.00
2022-08-30T21:46:18.021Z,18.00
2022-08-30T21:48:49.272Z,18.00
2022-08-30T21:51:18.158Z,17.90
2022-08-30T21:53:46.598Z,17.90
2022-08-30T21:56:21.706Z,17.90
2022-08-30T21:58:51.532Z,17.90
2022-08-30T22:01:23.589Z,17.90
2022-08-30T22:03:55.323Z,17.90
2022-08-30T22:06:30.801Z,17.80
2022-08-30T22:09:01.208Z,17.80
2022-08-30T22:11:31.153Z,17.80
2022-08-30T22:13:59.693Z,17.80
2022-08-30T22:16:29.943Z,17.70
2022-08-30T22:18:59.780Z,17.70
2022-08-30T22:21:33.106Z,17.70
2022-08-30T22:24:02.259Z,17.60
2022-08-30T22:26:32.219Z,17.60
2022-08-30T22:29:00.628Z,17.70
2022-08-30T22:31:29.291Z,17.70
2022-08-30T22:34:01.797Z,17.60
2022-08-30T22:36:33.870Z,17.60
2022-08-30T22:39:03.630Z,17.60
2022-08-30T22:41:34.139Z,17.50
2022-08-30T22:44:02.742Z,17.50
2022-08-30T22:46:34.306Z,17.50
2022-08-30T22:49:05.487Z,17.40
2022-08-30T22:51:34.294Z,17.40
2022-08-30T22:54:03.095Z,17.40
2022-08-30T22:56:32.229Z,17.30
2022-08-30T22:59:00.563Z,17.30
2022-08-30T23:01:30.957Z,17.30
2022-08-30T23:04:01.335Z,17.30
2022-08-30T23:06:31.618Z,17.30
2022-08-30T23:09:05.870Z,17.20
2022-08-30T23:11:34.547Z,17.30
2022-08-30T23:14:03.256Z,17.20
2022-08-30T23:16:32.506Z,17.20
2022-08-30T23:19:01.023Z,17.20
2022-08-30T23:21:32.089Z,17.20
2022-08-30T23:24:18.656Z,17.10
2022-08-30T23:27:05.541Z,17.10
2022-08-30T23:29:55.053Z,17.10
2022-08-30T23:32:41.459Z,17.10
2022-08-30T23:35:29.959Z,17.10
2022-08-30T23:38:18.142Z,17.10
2022-08-30T23:41:03.690Z,17.10
2022-08-30T23:43:49.322Z,17.10
2022-08-30T23:46:35.045Z,17.10
2022-08-30T23:49:21.215Z,17.10
2022-08-30T23:52:08.473Z,17.10
2022-08-30T23:54:57.606Z,17.10
2022-08-30T23:57:44.151Z,17.10
